Terminal Aerodrome Forecast
Issued by NWS

Home | Current Version | Previous Version | Graphics & Text | Print | Product List | Glossary On
Versions: 1 2 3 4 5 6 7 8 9 10 11 12 13
000
FTUS43 KBIS 310520
TAFMOT
TAF
KMOT 310520Z 3106/0106 09007KT P6SM FEW090
     FM310800 10007KT P6SM VCTS SCT090CB SCT250
     FM311200 12010KT P6SM SCT250=

USA.gov is the U.S. government's official web portal to all federal, state and local government web resources and services.